sensor_id;sensor_type;location;lat;lon;timestamp;P1;durP1;ratioP1;P2;durP2;ratioP2
912;SDS011;443;51.448;7.028;2023-05-07T00:01:40;5.10;;;2.93;;
912;SDS011;443;51.448;7.028;2023-05-07T00:04:09;3.10;;;2.80;;
912;SDS011;443;51.448;7.028;2023-05-07T00:06:35;5.33;;;3.13;;
912;SDS011;443;51.448;7.028;2023-05-07T00:09:02;9.10;;;2.97;;
912;SDS011;443;51.448;7.028;2023-05-07T00:11:29;4.60;;;2.50;;
912;SDS011;443;51.448;7.028;2023-05-07T00:13:56;2.90;;;2.60;;
912;SDS011;443;51.448;7.028;2023-05-07T00:16:22;2.47;;;2.20;;
912;SDS011;443;51.448;7.028;2023-05-07T00:18:49;2.90;;;2.20;;
912;SDS011;443;51.448;7.028;2023-05-07T00:21:18;7.33;;;2.93;;
912;SDS011;443;51.448;7.028;2023-05-07T00:23:44;3.20;;;2.50;;
912;SDS011;443;51.448;7.028;2023-05-07T00:26:11;5.40;;;2.80;;
912;SDS011;443;51.448;7.028;2023-05-07T00:28:38;2.37;;;2.17;;
912;SDS011;443;51.448;7.028;2023-05-07T00:31:04;3.03;;;1.93;;
912;SDS011;443;51.448;7.028;2023-05-07T00:33:31;3.63;;;2.40;;
912;SDS011;443;51.448;7.028;2023-05-07T00:35:58;4.80;;;2.77;;
912;SDS011;443;51.448;7.028;2023-05-07T00:38:27;3.30;;;2.50;;
912;SDS011;443;51.448;7.028;2023-05-07T00:40:54;3.97;;;2.77;;
912;SDS011;443;51.448;7.028;2023-05-07T00:43:20;5.17;;;2.93;;
912;SDS011;443;51.448;7.028;2023-05-07T00:45:47;4.63;;;2.80;;
912;SDS011;443;51.448;7.028;2023-05-07T00:48:15;3.20;;;2.23;;
912;SDS011;443;51.448;7.028;2023-05-07T00:50:42;3.67;;;2.30;;
912;SDS011;443;51.448;7.028;2023-05-07T00:53:10;5.40;;;3.17;;
912;SDS011;443;51.448;7.028;2023-05-07T00:55:39;2.67;;;2.40;;
912;SDS011;443;51.448;7.028;2023-05-07T00:58:05;3.53;;;2.80;;
912;SDS011;443;51.448;7.028;2023-05-07T01:00:32;4.73;;;3.13;;
912;SDS011;443;51.448;7.028;2023-05-07T01:02:59;5.03;;;3.30;;
912;SDS011;443;51.448;7.028;2023-05-07T01:05:26;5.00;;;3.43;;
912;SDS011;443;51.448;7.028;2023-05-07T01:07:55;4.13;;;3.13;;
912;SDS011;443;51.448;7.028;2023-05-07T01:10:23;6.30;;;3.80;;
912;SDS011;443;51.448;7.028;2023-05-07T01:12:52;5.70;;;4.57;;
912;SDS011;443;51.448;7.028;2023-05-07T01:15:20;4.57;;;4.17;;
912;SDS011;443;51.448;7.028;2023-05-07T01:17:47;7.20;;;3.90;;
912;SDS011;443;51.448;7.028;2023-05-07T01:20:14;6.20;;;4.00;;
912;SDS011;443;51.448;7.028;2023-05-07T01:22:42;3.67;;;3.27;;
912;SDS011;443;51.448;7.028;2023-05-07T01:25:09;5.37;;;3.57;;
912;SDS011;443;51.448;7.028;2023-05-07T01:27:36;8.63;;;5.13;;
912;SDS011;443;51.448;7.028;2023-05-07T01:30:03;5.60;;;3.87;;
912;SDS011;443;51.448;7.028;2023-05-07T01:32:32;4.93;;;4.20;;
912;SDS011;443;51.448;7.028;2023-05-07T01:35:04;6.50;;;4.63;;
912;SDS011;443;51.448;7.028;2023-05-07T01:37:33;6.17;;;3.60;;
912;SDS011;443;51.448;7.028;2023-05-07T01:40:02;5.17;;;4.67;;
912;SDS011;443;51.448;7.028;2023-05-07T01:42:30;6.80;;;6.20;;
912;SDS011;443;51.448;7.028;2023-05-07T01:44:57;4.80;;;4.07;;
912;SDS011;443;51.448;7.028;2023-05-07T01:47:24;6.70;;;4.83;;
912;SDS011;443;51.448;7.028;2023-05-07T01:49:51;4.87;;;3.10;;
912;SDS011;443;51.448;7.028;2023-05-07T01:52:18;5.23;;;4.57;;
912;SDS011;443;51.448;7.028;2023-05-07T01:54:45;4.83;;;4.07;;
912;SDS011;443;51.448;7.028;2023-05-07T01:57:13;4.33;;;2.90;;
912;SDS011;443;51.448;7.028;2023-05-07T01:59:40;4.53;;;3.50;;
912;SDS011;443;51.448;7.028;2023-05-07T02:02:06;4.13;;;3.73;;
912;SDS011;443;51.448;7.028;2023-05-07T02:04:33;4.70;;;3.57;;
912;SDS011;443;51.448;7.028;2023-05-07T02:07:00;4.60;;;3.97;;
912;SDS011;443;51.448;7.028;2023-05-07T02:09:26;5.30;;;4.07;;
912;SDS011;443;51.448;7.028;2023-05-07T02:11:53;5.50;;;4.00;;
912;SDS011;443;51.448;7.028;2023-05-07T02:14:21;3.90;;;3.50;;
912;SDS011;443;51.448;7.028;2023-05-07T02:16:48;4.23;;;3.70;;
912;SDS011;443;51.448;7.028;2023-05-07T02:19:15;7.20;;;4.03;;
912;SDS011;443;51.448;7.028;2023-05-07T02:21:43;6.10;;;4.13;;
912;SDS011;443;51.448;7.028;2023-05-07T02:24:09;5.30;;;3.90;;
912;SDS011;443;51.448;7.028;2023-05-07T02:26:36;8.33;;;3.90;;
912;SDS011;443;51.448;7.028;2023-05-07T02:29:03;4.90;;;3.60;;
912;SDS011;443;51.448;7.028;2023-05-07T02:31:31;4.30;;;3.10;;
912;SDS011;443;51.448;7.028;2023-05-07T02:33:58;3.80;;;3.43;;
912;SDS011;443;51.448;7.028;2023-05-07T02:36:25;3.90;;;3.53;;
912;SDS011;443;51.448;7.028;2023-05-07T02:38:52;4.60;;;3.60;;
912;SDS011;443;51.448;7.028;2023-05-07T02:41:19;5.37;;;4.50;;
912;SDS011;443;51.448;7.028;2023-05-07T02:43:46;6.97;;;3.83;;
912;SDS011;443;51.448;7.028;2023-05-07T02:46:13;7.07;;;3.70;;
912;SDS011;443;51.448;7.028;2023-05-07T02:48:42;4.40;;;3.50;;
912;SDS011;443;51.448;7.028;2023-05-07T02:51:08;5.13;;;4.00;;
912;SDS011;443;51.448;7.028;2023-05-07T02:53:35;4.90;;;3.47;;
912;SDS011;443;51.448;7.028;2023-05-07T02:56:02;4.13;;;2.93;;
912;SDS011;443;51.448;7.028;2023-05-07T02:58:30;4.60;;;3.00;;
912;SDS011;443;51.448;7.028;2023-05-07T03:00:57;4.17;;;3.77;;
912;SDS011;443;51.448;7.028;2023-05-07T03:03:24;3.87;;;3.47;;
912;SDS011;443;51.448;7.028;2023-05-07T03:05:52;4.00;;;3.60;;
912;SDS011;443;51.448;7.028;2023-05-07T03:08:19;6.70;;;4.37;;
912;SDS011;443;51.448;7.028;2023-05-07T03:10:46;7.13;;;3.47;;
912;SDS011;443;51.448;7.028;2023-05-07T03:13:13;3.80;;;3.40;;
912;SDS011;443;51.448;7.028;2023-05-07T03:15:39;3.20;;;2.90;;
912;SDS011;443;51.448;7.028;2023-05-07T03:18:06;3.70;;;3.40;;
912;SDS011;443;51.448;7.028;2023-05-07T03:20:33;5.33;;;3.93;;
912;SDS011;443;51.448;7.028;2023-05-07T03:23:02;5.10;;;3.90;;
912;SDS011;443;51.448;7.028;2023-05-07T03:25:29;5.30;;;3.77;;
912;SDS011;443;51.448;7.028;2023-05-07T03:27:56;5.27;;;4.33;;
912;SDS011;443;51.448;7.028;2023-05-07T03:30:23;5.00;;;3.30;;
912;SDS011;443;51.448;7.028;2023-05-07T03:32:50;5.43;;;3.73;;
912;SDS011;443;51.448;7.028;2023-05-07T03:35:17;5.43;;;4.30;;
912;SDS011;443;51.448;7.028;2023-05-07T03:37:43;7.30;;;5.00;;
912;SDS011;443;51.448;7.028;2023-05-07T03:40:12;6.30;;;3.77;;
912;SDS011;443;51.448;7.028;2023-05-07T03:42:38;3.40;;;3.10;;
912;SDS011;443;51.448;7.028;2023-05-07T03:45:06;5.53;;;3.40;;
912;SDS011;443;51.448;7.028;2023-05-07T03:47:33;5.60;;;3.83;;
912;SDS011;443;51.448;7.028;2023-05-07T03:50:00;4.73;;;3.87;;
912;SDS011;443;51.448;7.028;2023-05-07T03:52:27;4.60;;;3.93;;
912;SDS011;443;51.448;7.028;2023-05-07T03:54:54;3.63;;;3.33;;
912;SDS011;443;51.448;7.028;2023-05-07T03:57:22;6.43;;;4.27;;
912;SDS011;443;51.448;7.028;2023-05-07T03:59:48;10.93;;;3.70;;
912;SDS011;443;51.448;7.028;2023-05-07T04:02:15;5.90;;;4.43;;
912;SDS011;443;51.448;7.028;2023-05-07T04:04:42;5.20;;;4.60;;
912;SDS011;443;51.448;7.028;2023-05-07T04:07:09;8.60;;;4.63;;
912;SDS011;443;51.448;7.028;2023-05-07T04:09:35;4.63;;;4.13;;
912;SDS011;443;51.448;7.028;2023-05-07T04:12:02;8.43;;;4.63;;
912;SDS011;443;51.448;7.028;2023-05-07T04:14:31;5.87;;;5.27;;
912;SDS011;443;51.448;7.028;2023-05-07T04:16:58;7.90;;;5.90;;
912;SDS011;443;51.448;7.028;2023-05-07T04:19:25;7.50;;;5.23;;
912;SDS011;443;51.448;7.028;2023-05-07T04:21:51;7.70;;;6.03;;
912;SDS011;443;51.448;7.028;2023-05-07T04:24:18;9.20;;;6.43;;
912;SDS011;443;51.448;7.028;2023-05-07T04:26:45;10.67;;;7.80;;
912;SDS011;443;51.448;7.028;2023-05-07T04:29:12;8.07;;;6.93;;
912;SDS011;443;51.448;7.028;2023-05-07T04:31:40;9.03;;;8.00;;
912;SDS011;443;51.448;7.028;2023-05-07T04:34:09;11.80;;;6.73;;
912;SDS011;443;51.448;7.028;2023-05-07T04:36:36;10.63;;;8.07;;
912;SDS011;443;51.448;7.028;2023-05-07T04:39:03;9.80;;;8.00;;
912;SDS011;443;51.448;7.028;2023-05-07T04:41:30;11.63;;;8.67;;
912;SDS011;443;51.448;7.028;2023-05-07T04:43:57;10.10;;;8.60;;
912;SDS011;443;51.448;7.028;2023-05-07T04:46:24;13.83;;;9.73;;
912;SDS011;443;51.448;7.028;2023-05-07T04:48:53;13.33;;;8.67;;
912;SDS011;443;51.448;7.028;2023-05-07T04:51:19;13.93;;;9.30;;
912;SDS011;443;51.448;7.028;2023-05-07T04:53:46;12.10;;;9.30;;
912;SDS011;443;51.448;7.028;2023-05-07T04:56:13;12.33;;;10.13;;
912;SDS011;443;51.448;7.028;2023-05-07T04:58:40;14.93;;;9.27;;
912;SDS011;443;51.448;7.028;2023-05-07T05:01:06;10.90;;;8.40;;
912;SDS011;443;51.448;7.028;2023-05-07T05:03:33;12.10;;;8.83;;
912;SDS011;443;51.448;7.028;2023-05-07T05:06:01;9.80;;;7.47;;
912;SDS011;443;51.448;7.028;2023-05-07T05:08:29;10.07;;;7.87;;
912;SDS011;443;51.448;7.028;2023-05-07T05:10:56;10.07;;;7.30;;
912;SDS011;443;51.448;7.028;2023-05-07T05:13:23;9.77;;;7.40;;
912;SDS011;443;51.448;7.028;2023-05-07T05:15:50;10.70;;;7.67;;
912;SDS011;443;51.448;7.028;2023-05-07T05:18:16;11.33;;;7.87;;
912;SDS011;443;51.448;7.028;2023-05-07T05:20:43;9.57;;;8.00;;
912;SDS011;443;51.448;7.028;2023-05-07T05:23:11;8.17;;;7.10;;
912;SDS011;443;51.448;7.028;2023-05-07T05:25:38;9.67;;;7.47;;
912;SDS011;443;51.448;7.028;2023-05-07T05:28:05;7.87;;;7.00;;
912;SDS011;443;51.448;7.028;2023-05-07T05:30:32;9.70;;;7.50;;
912;SDS011;443;51.448;7.028;2023-05-07T05:32:59;12.03;;;8.53;;
912;SDS011;443;51.448;7.028;2023-05-07T05:35:25;7.90;;;6.83;;
912;SDS011;443;51.448;7.028;2023-05-07T05:37:52;7.83;;;7.03;;
912;SDS011;443;51.448;7.028;2023-05-07T05:40:20;8.87;;;6.90;;
912;SDS011;443;51.448;7.028;2023-05-07T05:42:47;10.90;;;7.40;;
912;SDS011;443;51.448;7.028;2023-05-07T05:45:14;9.97;;;6.70;;
912;SDS011;443;51.448;7.028;2023-05-07T05:47:40;7.10;;;5.47;;
912;SDS011;443;51.448;7.028;2023-05-07T05:50:07;7.83;;;5.53;;
912;SDS011;443;51.448;7.028;2023-05-07T05:52:34;5.80;;;5.20;;
912;SDS011;443;51.448;7.028;2023-05-07T05:55:01;10.80;;;6.40;;
912;SDS011;443;51.448;7.028;2023-05-07T05:57:29;7.30;;;6.30;;
912;SDS011;443;51.448;7.028;2023-05-07T05:59:56;6.00;;;5.40;;
912;SDS011;443;51.448;7.028;2023-05-07T06:02:23;11.33;;;6.13;;
912;SDS011;443;51.448;7.028;2023-05-07T06:04:50;3.87;;;3.00;;
912;SDS011;443;51.448;7.028;2023-05-07T06:07:17;7.30;;;6.43;;
912;SDS011;443;51.448;7.028;2023-05-07T06:09:44;5.83;;;5.23;;
912;SDS011;443;51.448;7.028;2023-05-07T06:12:10;5.40;;;4.90;;
912;SDS011;443;51.448;7.028;2023-05-07T06:14:39;9.07;;;6.30;;
912;SDS011;443;51.448;7.028;2023-05-07T06:17:05;6.80;;;5.90;;
912;SDS011;443;51.448;7.028;2023-05-07T06:19:32;2.87;;;1.70;;
912;SDS011;443;51.448;7.028;2023-05-07T06:22:00;8.27;;;5.90;;
912;SDS011;443;51.448;7.028;2023-05-07T06:24:27;6.00;;;4.77;;
912;SDS011;443;51.448;7.028;2023-05-07T06:26:54;6.67;;;4.90;;
912;SDS011;443;51.448;7.028;2023-05-07T06:29:23;6.13;;;5.03;;
912;SDS011;443;51.448;7.028;2023-05-07T06:31:52;8.30;;;5.40;;
912;SDS011;443;51.448;7.028;2023-05-07T06:34:19;6.67;;;4.60;;
912;SDS011;443;51.448;7.028;2023-05-07T06:36:45;6.80;;;4.60;;
912;SDS011;443;51.448;7.028;2023-05-07T06:39:12;7.67;;;5.10;;
912;SDS011;443;51.448;7.028;2023-05-07T06:41:39;5.40;;;4.27;;
912;SDS011;443;51.448;7.028;2023-05-07T06:44:05;7.90;;;4.80;;
912;SDS011;443;51.448;7.028;2023-05-07T06:46:32;5.93;;;3.80;;
912;SDS011;443;51.448;7.028;2023-05-07T06:49:00;7.93;;;4.87;;
912;SDS011;443;51.448;7.028;2023-05-07T06:51:27;6.70;;;4.27;;
912;SDS011;443;51.448;7.028;2023-05-07T06:53:55;1.57;;;1.47;;
912;SDS011;443;51.448;7.028;2023-05-07T06:56:21;1.60;;;1.30;;
912;SDS011;443;51.448;7.028;2023-05-07T06:58:48;1.70;;;1.40;;
912;SDS011;443;51.448;7.028;2023-05-07T07:01:15;1.63;;;1.50;;
912;SDS011;443;51.448;7.028;2023-05-07T07:03:42;3.70;;;2.50;;
912;SDS011;443;51.448;7.028;2023-05-07T07:06:10;5.00;;;3.33;;
912;SDS011;443;51.448;7.028;2023-05-07T07:08:37;3.10;;;2.70;;
912;SDS011;443;51.448;7.028;2023-05-07T07:11:04;1.80;;;1.37;;
912;SDS011;443;51.448;7.028;2023-05-07T07:13:31;3.57;;;1.97;;
912;SDS011;443;51.448;7.028;2023-05-07T07:15:58;3.60;;;3.03;;
912;SDS011;443;51.448;7.028;2023-05-07T07:18:24;3.40;;;2.90;;
912;SDS011;443;51.448;7.028;2023-05-07T07:20:51;2.30;;;2.00;;
912;SDS011;443;51.448;7.028;2023-05-07T07:23:19;3.73;;;2.90;;
912;SDS011;443;51.448;7.028;2023-05-07T07:25:46;2.63;;;1.30;;
912;SDS011;443;51.448;7.028;2023-05-07T07:28:13;2.20;;;1.50;;
912;SDS011;443;51.448;7.028;2023-05-07T07:30:40;2.60;;;2.00;;
912;SDS011;443;51.448;7.028;2023-05-07T07:33:06;2.50;;;2.30;;
912;SDS011;443;51.448;7.028;2023-05-07T07:35:33;1.30;;;1.20;;
912;SDS011;443;51.448;7.028;2023-05-07T07:38:00;3.67;;;2.50;;
912;SDS011;443;51.448;7.028;2023-05-07T07:40:28;4.10;;;2.50;;
912;SDS011;443;51.448;7.028;2023-05-07T07:42:56;2.50;;;1.97;;
912;SDS011;443;51.448;7.028;2023-05-07T07:45:23;2.67;;;2.03;;
912;SDS011;443;51.448;7.028;2023-05-07T07:47:50;2.83;;;2.07;;
912;SDS011;443;51.448;7.028;2023-05-07T07:50:17;1.43;;;1.17;;
912;SDS011;443;51.448;7.028;2023-05-07T07:52:44;3.50;;;2.03;;
912;SDS011;443;51.448;7.028;2023-05-07T07:55:11;3.53;;;2.00;;
912;SDS011;443;51.448;7.028;2023-05-07T07:57:39;4.23;;;2.33;;
912;SDS011;443;51.448;7.028;2023-05-07T08:00:06;2.30;;;2.10;;
912;SDS011;443;51.448;7.028;2023-05-07T08:02:34;1.60;;;1.27;;
912;SDS011;443;51.448;7.028;2023-05-07T08:05:00;2.53;;;2.23;;
912;SDS011;443;51.448;7.028;2023-05-07T08:07:27;3.30;;;1.80;;
912;SDS011;443;51.448;7.028;2023-05-07T08:09:55;1.53;;;1.27;;
912;SDS011;443;51.448;7.028;2023-05-07T08:12:22;2.63;;;1.63;;
912;SDS011;443;51.448;7.028;2023-05-07T08:14:50;2.23;;;1.40;;
912;SDS011;443;51.448;7.028;2023-05-07T08:17:17;1.97;;;1.53;;
912;SDS011;443;51.448;7.028;2023-05-07T08:19:43;2.03;;;1.70;;
912;SDS011;443;51.448;7.028;2023-05-07T08:22:10;1.87;;;1.43;;
912;SDS011;443;51.448;7.028;2023-05-07T08:24:37;1.50;;;1.20;;
912;SDS011;443;51.448;7.028;2023-05-07T08:27:04;3.80;;;1.60;;
912;SDS011;443;51.448;7.028;2023-05-07T08:29:31;3.80;;;1.60;;
912;SDS011;443;51.448;7.028;2023-05-07T08:31:59;2.13;;;1.47;;
912;SDS011;443;51.448;7.028;2023-05-07T08:34:26;3.30;;;2.20;;
912;SDS011;443;51.448;7.028;2023-05-07T08:36:52;1.57;;;1.27;;
912;SDS011;443;51.448;7.028;2023-05-07T08:39:20;2.50;;;1.37;;
912;SDS011;443;51.448;7.028;2023-05-07T08:41:47;1.80;;;1.50;;
912;SDS011;443;51.448;7.028;2023-05-07T08:44:16;1.40;;;1.13;;
912;SDS011;443;51.448;7.028;2023-05-07T08:46:43;3.37;;;2.23;;
912;SDS011;443;51.448;7.028;2023-05-07T08:49:14;4.10;;;2.23;;
912;SDS011;443;51.448;7.028;2023-05-07T08:51:41;4.40;;;1.97;;
912;SDS011;443;51.448;7.028;2023-05-07T08:54:08;1.43;;;1.23;;
912;SDS011;443;51.448;7.028;2023-05-07T08:56:37;1.60;;;1.33;;
912;SDS011;443;51.448;7.028;2023-05-07T08:59:04;2.33;;;1.60;;
912;SDS011;443;51.448;7.028;2023-05-07T09:01:31;1.83;;;1.60;;
912;SDS011;443;51.448;7.028;2023-05-07T09:04:00;1.43;;;1.33;;
912;SDS011;443;51.448;7.028;2023-05-07T09:06:28;2.10;;;1.27;;
912;SDS011;443;51.448;7.028;2023-05-07T09:08:56;2.33;;;1.70;;
912;SDS011;443;51.448;7.028;2023-05-07T09:11:23;1.20;;;0.93;;
912;SDS011;443;51.448;7.028;2023-05-07T09:13:53;1.70;;;1.20;;
912;SDS011;443;51.448;7.028;2023-05-07T09:16:21;1.43;;;1.10;;
912;SDS011;443;51.448;7.028;2023-05-07T09:18:50;1.57;;;1.33;;
912;SDS011;443;51.448;7.028;2023-05-07T09:21:19;1.33;;;1.23;;
912;SDS011;443;51.448;7.028;2023-05-07T09:23:50;1.97;;;1.33;;
912;SDS011;443;51.448;7.028;2023-05-07T09:26:17;1.50;;;1.20;;
912;SDS011;443;51.448;7.028;2023-05-07T09:28:45;1.90;;;1.17;;
912;SDS011;443;51.448;7.028;2023-05-07T09:31:12;2.00;;;1.50;;
912;SDS011;443;51.448;7.028;2023-05-07T09:33:39;1.47;;;1.13;;
912;SDS011;443;51.448;7.028;2023-05-07T09:36:07;2.70;;;1.67;;
912;SDS011;443;51.448;7.028;2023-05-07T09:38:35;1.60;;;1.50;;
912;SDS011;443;51.448;7.028;2023-05-07T09:41:04;3.10;;;1.50;;
912;SDS011;443;51.448;7.028;2023-05-07T09:43:33;1.30;;;1.20;;
912;SDS011;443;51.448;7.028;2023-05-07T09:46:05;1.90;;;1.73;;
912;SDS011;443;51.448;7.028;2023-05-07T09:48:35;1.80;;;1.17;;
912;SDS011;443;51.448;7.028;2023-05-07T09:51:06;2.67;;;2.03;;
912;SDS011;443;51.448;7.028;2023-05-07T09:53:39;1.20;;;0.90;;
912;SDS011;443;51.448;7.028;2023-05-07T09:56:08;1.77;;;1.30;;
912;SDS011;443;51.448;7.028;2023-05-07T09:58:36;2.03;;;1.20;;
912;SDS011;443;51.448;7.028;2023-05-07T10:01:04;2.33;;;1.47;;
912;SDS011;443;51.448;7.028;2023-05-07T10:03:33;2.67;;;1.47;;
912;SDS011;443;51.448;7.028;2023-05-07T10:06:01;2.93;;;1.43;;
912;SDS011;443;51.448;7.028;2023-05-07T10:08:29;1.63;;;1.20;;
912;SDS011;443;51.448;7.028;2023-05-07T10:10:57;1.73;;;1.07;;
912;SDS011;443;51.448;7.028;2023-05-07T10:13:25;2.13;;;1.40;;
912;SDS011;443;51.448;7.028;2023-05-07T10:15:52;1.27;;;1.17;;
912;SDS011;443;51.448;7.028;2023-05-07T10:18:21;3.37;;;2.50;;
912;SDS011;443;51.448;7.028;2023-05-07T10:20:54;2.23;;;2.03;;
912;SDS011;443;51.448;7.028;2023-05-07T10:23:23;5.93;;;1.50;;
912;SDS011;443;51.448;7.028;2023-05-07T10:25:52;3.30;;;2.73;;
912;SDS011;443;51.448;7.028;2023-05-07T10:28:20;1.53;;;1.30;;
912;SDS011;443;51.448;7.028;2023-05-07T10:30:55;3.97;;;2.30;;
912;SDS011;443;51.448;7.028;2023-05-07T10:33:30;1.83;;;1.73;;
912;SDS011;443;51.448;7.028;2023-05-07T10:35:59;1.57;;;1.30;;
912;SDS011;443;51.448;7.028;2023-05-07T10:38:29;1.47;;;1.20;;
912;SDS011;443;51.448;7.028;2023-05-07T10:40:56;1.63;;;1.47;;
912;SDS011;443;51.448;7.028;2023-05-07T10:43:23;2.30;;;1.60;;
912;SDS011;443;51.448;7.028;2023-05-07T10:46:10;1.80;;;1.10;;
912;SDS011;443;51.448;7.028;2023-05-07T10:51:36;3.10;;;1.43;;
912;SDS011;443;51.448;7.028;2023-05-07T10:54:19;1.40;;;1.03;;
912;SDS011;443;51.448;7.028;2023-05-07T10:56:52;1.77;;;1.10;;
912;SDS011;443;51.448;7.028;2023-05-07T10:59:37;1.80;;;1.43;;
912;SDS011;443;51.448;7.028;2023-05-07T11:02:09;1.90;;;1.40;;
912;SDS011;443;51.448;7.028;2023-05-07T11:04:36;1.20;;;1.10;;
912;SDS011;443;51.448;7.028;2023-05-07T11:09:54;2.30;;;1.30;;
912;SDS011;443;51.448;7.028;2023-05-07T11:15:37;1.50;;;1.03;;
912;SDS011;443;51.448;7.028;2023-05-07T11:18:10;1.20;;;0.90;;
912;SDS011;443;51.448;7.028;2023-05-07T11:20:44;1.70;;;1.00;;
912;SDS011;443;51.448;7.028;2023-05-07T11:26:46;2.73;;;1.60;;
912;SDS011;443;51.448;7.028;2023-05-07T11:29:15;1.20;;;1.07;;
912;SDS011;443;51.448;7.028;2023-05-07T11:31:42;4.10;;;1.13;;
912;SDS011;443;51.448;7.028;2023-05-07T11:34:10;2.30;;;2.10;;
912;SDS011;443;51.448;7.028;2023-05-07T11:36:41;3.07;;;1.53;;
912;SDS011;443;51.448;7.028;2023-05-07T11:39:28;1.93;;;1.23;;
912;SDS011;443;51.448;7.028;2023-05-07T11:41:58;1.73;;;1.20;;
912;SDS011;443;51.448;7.028;2023-05-07T11:44:24;1.20;;;1.07;;
912;SDS011;443;51.448;7.028;2023-05-07T11:46:51;2.50;;;1.37;;
912;SDS011;443;51.448;7.028;2023-05-07T11:49:19;2.23;;;1.40;;
912;SDS011;443;51.448;7.028;2023-05-07T11:51:46;1.70;;;1.10;;
912;SDS011;443;51.448;7.028;2023-05-07T11:54:15;2.50;;;1.87;;
912;SDS011;443;51.448;7.028;2023-05-07T11:56:43;0.77;;;0.50;;
912;SDS011;443;51.448;7.028;2023-05-07T11:59:12;1.57;;;1.13;;
912;SDS011;443;51.448;7.028;2023-05-07T12:01:44;1.30;;;1.13;;
912;SDS011;443;51.448;7.028;2023-05-07T12:04:12;1.73;;;0.97;;
912;SDS011;443;51.448;7.028;2023-05-07T12:06:40;2.13;;;1.20;;
912;SDS011;443;51.448;7.028;2023-05-07T12:09:06;2.50;;;2.30;;
912;SDS011;443;51.448;7.028;2023-05-07T12:11:36;1.43;;;1.20;;
912;SDS011;443;51.448;7.028;2023-05-07T12:14:05;1.70;;;1.27;;
912;SDS011;443;51.448;7.028;2023-05-07T12:16:31;2.90;;;1.50;;
912;SDS011;443;51.448;7.028;2023-05-07T12:18:58;3.00;;;2.10;;
912;SDS011;443;51.448;7.028;2023-05-07T12:21:26;1.77;;;1.17;;
912;SDS011;443;51.448;7.028;2023-05-07T12:23:54;1.20;;;1.10;;
912;SDS011;443;51.448;7.028;2023-05-07T12:26:22;3.07;;;1.13;;
912;SDS011;443;51.448;7.028;2023-05-07T12:28:49;1.77;;;1.10;;
912;SDS011;443;51.448;7.028;2023-05-07T12:31:15;1.53;;;1.20;;
912;SDS011;443;51.448;7.028;2023-05-07T12:33:43;1.00;;;0.87;;
912;SDS011;443;51.448;7.028;2023-05-07T12:36:11;2.03;;;1.00;;
912;SDS011;443;51.448;7.028;2023-05-07T12:38:39;0.80;;;0.70;;
912;SDS011;443;51.448;7.028;2023-05-07T12:41:08;1.63;;;0.93;;
912;SDS011;443;51.448;7.028;2023-05-07T12:43:37;1.80;;;1.27;;
912;SDS011;443;51.448;7.028;2023-05-07T12:46:04;3.47;;;1.07;;
912;SDS011;443;51.448;7.028;2023-05-07T12:48:32;2.27;;;1.00;;
912;SDS011;443;51.448;7.028;2023-05-07T12:51:00;1.17;;;0.90;;
912;SDS011;443;51.448;7.028;2023-05-07T12:53:27;2.17;;;1.33;;
912;SDS011;443;51.448;7.028;2023-05-07T12:55:56;4.30;;;1.80;;
912;SDS011;443;51.448;7.028;2023-05-07T12:58:26;2.40;;;1.70;;
912;SDS011;443;51.448;7.028;2023-05-07T13:00:53;1.97;;;1.33;;
912;SDS011;443;51.448;7.028;2023-05-07T13:03:24;1.40;;;1.20;;
912;SDS011;443;51.448;7.028;2023-05-07T13:05:52;2.03;;;1.60;;
912;SDS011;443;51.448;7.028;2023-05-07T13:08:23;1.63;;;1.07;;
912;SDS011;443;51.448;7.028;2023-05-07T13:10:51;1.30;;;1.00;;
912;SDS011;443;51.448;7.028;2023-05-07T13:13:18;1.60;;;1.10;;
912;SDS011;443;51.448;7.028;2023-05-07T13:15:46;1.30;;;1.00;;
912;SDS011;443;51.448;7.028;2023-05-07T13:18:13;1.60;;;1.50;;
912;SDS011;443;51.448;7.028;2023-05-07T13:20:40;1.10;;;0.97;;
912;SDS011;443;51.448;7.028;2023-05-07T13:23:07;3.07;;;1.70;;
912;SDS011;443;51.448;7.028;2023-05-07T13:25:34;2.27;;;2.03;;
912;SDS011;443;51.448;7.028;2023-05-07T13:28:00;2.43;;;2.07;;
912;SDS011;443;51.448;7.028;2023-05-07T13:30:27;1.53;;;1.07;;
912;SDS011;443;51.448;7.028;2023-05-07T13:32:56;1.10;;;0.83;;
912;SDS011;443;51.448;7.028;2023-05-07T13:35:22;1.10;;;0.83;;
912;SDS011;443;51.448;7.028;2023-05-07T13:37:49;4.23;;;3.63;;
912;SDS011;443;51.448;7.028;2023-05-07T13:40:17;2.00;;;0.97;;
912;SDS011;443;51.448;7.028;2023-05-07T13:42:44;1.50;;;1.20;;
912;SDS011;443;51.448;7.028;2023-05-07T13:45:11;2.30;;;1.53;;
912;SDS011;443;51.448;7.028;2023-05-07T13:47:39;1.30;;;1.17;;
912;SDS011;443;51.448;7.028;2023-05-07T13:50:08;1.83;;;1.40;;
912;SDS011;443;51.448;7.028;2023-05-07T13:52:36;1.20;;;1.10;;
912;SDS011;443;51.448;7.028;2023-05-07T13:55:05;1.90;;;1.60;;
912;SDS011;443;51.448;7.028;2023-05-07T13:57:33;1.97;;;1.50;;
912;SDS011;443;51.448;7.028;2023-05-07T13:59:59;2.60;;;1.17;;
912;SDS011;443;51.448;7.028;2023-05-07T14:02:26;2.33;;;1.97;;
912;SDS011;443;51.448;7.028;2023-05-07T14:04:53;1.40;;;1.27;;
912;SDS011;443;51.448;7.028;2023-05-07T14:07:21;2.63;;;1.47;;
912;SDS011;443;51.448;7.028;2023-05-07T14:09:47;1.93;;;1.30;;
912;SDS011;443;51.448;7.028;2023-05-07T14:12:14;1.80;;;1.30;;
912;SDS011;443;51.448;7.028;2023-05-07T14:14:41;1.33;;;1.20;;
912;SDS011;443;51.448;7.028;2023-05-07T14:17:08;2.50;;;1.40;;
912;SDS011;443;51.448;7.028;2023-05-07T14:19:34;1.50;;;0.97;;
912;SDS011;443;51.448;7.028;2023-05-07T14:22:01;1.40;;;1.00;;
912;SDS011;443;51.448;7.028;2023-05-07T14:24:29;1.10;;;0.97;;
912;SDS011;443;51.448;7.028;2023-05-07T14:26:56;1.83;;;1.10;;
912;SDS011;443;51.448;7.028;2023-05-07T14:29:23;1.97;;;1.47;;
912;SDS011;443;51.448;7.028;2023-05-07T14:31:49;1.47;;;1.10;;
912;SDS011;443;51.448;7.028;2023-05-07T14:34:16;2.20;;;1.60;;
912;SDS011;443;51.448;7.028;2023-05-07T14:36:43;2.20;;;1.33;;
912;SDS011;443;51.448;7.028;2023-05-07T14:39:09;1.30;;;1.10;;
912;SDS011;443;51.448;7.028;2023-05-07T14:41:38;1.20;;;1.10;;
912;SDS011;443;51.448;7.028;2023-05-07T14:44:04;1.37;;;1.03;;
912;SDS011;443;51.448;7.028;2023-05-07T14:46:31;1.20;;;0.97;;
912;SDS011;443;51.448;7.028;2023-05-07T14:48:58;1.50;;;1.10;;
912;SDS011;443;51.448;7.028;2023-05-07T14:51:25;1.90;;;1.43;;
912;SDS011;443;51.448;7.028;2023-05-07T14:53:53;1.20;;;1.10;;
912;SDS011;443;51.448;7.028;2023-05-07T14:56:20;1.27;;;1.13;;
912;SDS011;443;51.448;7.028;2023-05-07T14:58:48;3.07;;;1.40;;
912;SDS011;443;51.448;7.028;2023-05-07T15:01:15;2.40;;;1.13;;
912;SDS011;443;51.448;7.028;2023-05-07T15:03:42;2.17;;;1.20;;
912;SDS011;443;51.448;7.028;2023-05-07T15:06:09;2.20;;;1.43;;
912;SDS011;443;51.448;7.028;2023-05-07T15:08:35;2.03;;;1.70;;
912;SDS011;443;51.448;7.028;2023-05-07T15:11:02;1.40;;;0.90;;
912;SDS011;443;51.448;7.028;2023-05-07T15:13:29;1.70;;;1.20;;
912;SDS011;443;51.448;7.028;2023-05-07T15:15:57;1.63;;;1.13;;
912;SDS011;443;51.448;7.028;2023-05-07T15:18:24;2.00;;;1.40;;
912;SDS011;443;51.448;7.028;2023-05-07T15:20:50;1.80;;;1.23;;
912;SDS011;443;51.448;7.028;2023-05-07T15:23:17;1.60;;;1.50;;
912;SDS011;443;51.448;7.028;2023-05-07T15:25:44;2.60;;;1.13;;
912;SDS011;443;51.448;7.028;2023-05-07T15:28:11;2.03;;;1.40;;
912;SDS011;443;51.448;7.028;2023-05-07T15:30:37;1.83;;;1.20;;
912;SDS011;443;51.448;7.028;2023-05-07T15:33:06;1.43;;;1.33;;
912;SDS011;443;51.448;7.028;2023-05-07T15:35:32;2.10;;;1.33;;
912;SDS011;443;51.448;7.028;2023-05-07T15:37:59;1.40;;;1.20;;
912;SDS011;443;51.448;7.028;2023-05-07T15:40:28;1.43;;;1.07;;
912;SDS011;443;51.448;7.028;2023-05-07T15:42:55;1.50;;;1.30;;
912;SDS011;443;51.448;7.028;2023-05-07T15:45:22;6.10;;;4.17;;
912;SDS011;443;51.448;7.028;2023-05-07T15:47:49;2.60;;;1.43;;
912;SDS011;443;51.448;7.028;2023-05-07T15:50:18;1.43;;;1.10;;
912;SDS011;443;51.448;7.028;2023-05-07T15:52:45;1.47;;;1.10;;
912;SDS011;443;51.448;7.028;2023-05-07T15:55:12;1.80;;;1.17;;
912;SDS011;443;51.448;7.028;2023-05-07T15:57:39;1.53;;;1.43;;
912;SDS011;443;51.448;7.028;2023-05-07T16:00:06;4.10;;;3.40;;